createdAt,value
2018-01-23T00:01:43.467Z,41.50
2018-01-23T00:04:11.762Z,41.70
2018-01-23T00:06:39.396Z,41.70
2018-01-23T00:09:07.718Z,41.50
2018-01-23T00:11:35.466Z,41.40
2018-01-23T00:14:03.064Z,41.30
2018-01-23T00:16:30.726Z,40.60
2018-01-23T00:18:58.401Z,40.70
2018-01-23T00:21:26.011Z,40.50
2018-01-23T00:23:53.543Z,40.60
2018-01-23T00:26:21.939Z,40.70
2018-01-23T00:28:49.524Z,40.70
2018-01-23T00:31:17.224Z,40.50
2018-01-23T00:33:44.782Z,40.90
2018-01-23T00:36:13.322Z,41.10
2018-01-23T00:38:40.909Z,41.20
2018-01-23T00:41:08.740Z,41.10
2018-01-23T00:43:36.310Z,41.90
2018-01-23T00:46:03.889Z,41.10
2018-01-23T00:48:31.540Z,41.30
2018-01-23T00:50:59.138Z,40.90
2018-01-23T00:53:26.694Z,41.10
2018-01-23T00:55:54.348Z,40.80
2018-01-23T00:58:21.958Z,40.90
2018-01-23T01:00:49.524Z,41.40
2018-01-23T01:03:17.092Z,40.60
2018-01-23T01:05:44.678Z,40.90
2018-01-23T01:08:12.331Z,41.10
2018-01-23T01:10:39.876Z,41.20
2018-01-23T01:13:07.462Z,41.40
2018-01-23T01:15:35.031Z,41.40
2018-01-23T01:18:02.605Z,42.00
2018-01-23T01:20:30.205Z,42.10
2018-01-23T01:22:57.769Z,41.80
2018-01-23T01:25:25.331Z,41.40
2018-01-23T01:27:52.957Z,41.60
2018-01-23T01:30:21.279Z,42.20
2018-01-23T01:32:48.849Z,42.20
2018-01-23T01:35:16.441Z,41.20
2018-01-23T01:37:44.739Z,41.80
2018-01-23T01:40:12.436Z,41.30
2018-01-23T01:42:40.077Z,41.90
2018-01-23T01:45:07.794Z,41.30
2018-01-23T01:47:35.399Z,41.90
2018-01-23T01:50:02.967Z,42.20
2018-01-23T01:52:30.533Z,41.00
2018-01-23T01:54:58.145Z,41.40
2018-01-23T01:57:25.743Z,41.10
2018-01-23T01:59:53.313Z,41.30
2018-01-23T02:02:20.905Z,41.40
2018-01-23T02:04:48.449Z,40.70
2018-01-23T02:07:16.243Z,40.40
2018-01-23T02:09:43.815Z,41.30
2018-01-23T02:12:12.275Z,40.30
2018-01-23T02:14:40.741Z,40.70
2018-01-23T02:17:08.479Z,40.90
2018-01-23T02:19:36.037Z,40.10
2018-01-23T02:22:03.642Z,40.20
2018-01-23T02:24:31.971Z,38.90
2018-01-23T02:26:59.691Z,38.90
2018-01-23T02:29:27.261Z,38.90
2018-01-23T02:31:55.572Z,40.10
2018-01-23T02:34:23.165Z,40.20
2018-01-23T02:36:50.826Z,39.80
2018-01-23T02:39:18.374Z,40.20
2018-01-23T02:41:45.991Z,38.90
2018-01-23T02:44:14.307Z,39.60
2018-01-23T02:46:41.857Z,39.70
2018-01-23T02:49:09.439Z,39.10
2018-01-23T02:51:36.989Z,38.90
2018-01-23T02:54:04.533Z,40.30
2018-01-23T02:56:32.276Z,39.70
2018-01-23T02:58:59.837Z,40.00
2018-01-23T03:01:27.386Z,39.60
2018-01-23T03:03:54.986Z,39.10
2018-01-23T03:06:22.726Z,39.70
2018-01-23T03:08:50.367Z,39.20
2018-01-23T03:11:18.736Z,39.00
2018-01-23T03:13:47.056Z,39.90
2018-01-23T03:16:14.614Z,40.00
2018-01-23T03:18:42.198Z,40.10
2018-01-23T03:21:09.757Z,39.60
2018-01-23T03:23:37.538Z,38.90
2018-01-23T03:26:05.126Z,40.00
2018-01-23T03:28:33.456Z,39.10
2018-01-23T03:31:01.060Z,39.10
2018-01-23T03:33:29.401Z,38.80
2018-01-23T03:35:56.946Z,38.80
2018-01-23T03:38:24.554Z,38.90
2018-01-23T03:40:52.883Z,38.80
2018-01-23T03:43:20.440Z,39.00
2018-01-23T03:45:48.040Z,39.60
2018-01-23T03:48:15.615Z,39.00
2018-01-23T03:50:43.967Z,39.40
2018-01-23T03:53:11.761Z,39.40
2018-01-23T03:55:40.077Z,39.60
2018-01-23T03:58:07.648Z,39.70
2018-01-23T04:00:35.242Z,39.10
2018-01-23T04:03:02.792Z,39.80
2018-01-23T04:05:30.394Z,38.90
2018-01-23T04:07:57.922Z,38.80
2018-01-23T04:10:26.282Z,40.00
2018-01-23T04:12:53.878Z,40.00
2018-01-23T04:15:22.286Z,40.00
2018-01-23T04:17:49.872Z,40.10
2018-01-23T04:20:17.446Z,39.80
2018-01-23T04:22:45.027Z,40.30
2018-01-23T04:25:13.339Z,40.00
2018-01-23T04:27:40.944Z,40.10
2018-01-23T04:30:08.624Z,39.80
2018-01-23T04:32:37.003Z,40.40
2018-01-23T04:35:05.393Z,39.50
2018-01-23T04:37:33.707Z,40.40
2018-01-23T04:40:01.278Z,40.40
2018-01-23T04:42:28.880Z,40.50
2018-01-23T04:44:57.224Z,40.80
2018-01-23T04:47:24.789Z,40.70
2018-01-23T04:49:52.440Z,40.10
2018-01-23T04:52:19.990Z,40.00
2018-01-23T04:54:47.574Z,39.20
2018-01-23T04:57:15.401Z,39.00
2018-01-23T04:59:43.671Z,39.60
2018-01-23T05:02:11.982Z,39.00
2018-01-23T05:04:39.584Z,39.00
2018-01-23T05:07:07.894Z,38.80
2018-01-23T05:09:35.663Z,38.80
2018-01-23T05:12:03.200Z,39.30
2018-01-23T05:14:30.830Z,39.60
2018-01-23T05:16:58.408Z,39.40
2018-01-23T05:19:26.095Z,39.80
2018-01-23T05:21:53.703Z,39.50
2018-01-23T05:24:22.780Z,39.20
2018-01-23T05:26:50.528Z,39.30
2018-01-23T05:29:18.174Z,39.90
2018-01-23T05:31:45.737Z,40.10
2018-01-23T05:34:13.325Z,40.00
2018-01-23T05:36:40.932Z,38.70
2018-01-23T05:39:09.384Z,38.80
2018-01-23T05:41:37.044Z,38.70
2018-01-23T05:44:04.671Z,38.70
2018-01-23T05:46:32.239Z,38.80
2018-01-23T05:48:59.884Z,38.70
2018-01-23T05:51:27.555Z,38.70
2018-01-23T05:53:55.105Z,38.80
2018-01-23T05:56:22.760Z,38.70
2018-01-23T05:58:50.283Z,38.80
2018-01-23T06:01:18.760Z,38.70
2018-01-23T06:03:46.405Z,38.70
2018-01-23T06:06:14.749Z,38.70
2018-01-23T06:08:42.449Z,38.70
2018-01-23T06:11:10.101Z,38.70
2018-01-23T06:13:37.653Z,38.70
2018-01-23T06:16:05.231Z,38.70
2018-01-23T06:18:32.935Z,38.70
2018-01-23T06:21:00.493Z,38.70
2018-01-23T06:23:28.094Z,39.90
2018-01-23T06:25:55.643Z,39.70
2018-01-23T06:28:23.282Z,39.40
2018-01-23T06:30:50.845Z,38.70
2018-01-23T06:33:18.481Z,39.30
2018-01-23T06:35:46.791Z,38.70
2018-01-23T06:38:14.443Z,38.70
2018-01-23T06:40:41.988Z,39.90
2018-01-23T06:43:09.574Z,38.70
2018-01-23T06:45:37.154Z,39.20
2018-01-23T06:48:04.725Z,38.70
2018-01-23T06:50:33.285Z,38.80
2018-01-23T06:53:01.745Z,38.90
2018-01-23T06:55:29.309Z,39.10
2018-01-23T06:57:57.055Z,38.90
2018-01-23T07:00:24.643Z,39.80
2018-01-23T07:02:52.195Z,40.00
2018-01-23T07:05:19.977Z,39.70
2018-01-23T07:07:47.606Z,38.70
2018-01-23T07:10:15.181Z,38.70
2018-01-23T07:12:42.736Z,38.70
2018-01-23T07:15:10.329Z,38.70
2018-01-23T07:17:37.898Z,38.60
2018-01-23T07:20:05.503Z,38.70
2018-01-23T07:22:33.041Z,41.40
2018-01-23T07:25:01.415Z,45.40
2018-01-23T07:27:29.725Z,40.90
2018-01-23T07:29:57.316Z,40.90
2018-01-23T07:32:25.049Z,43.80
2018-01-23T07:34:52.623Z,41.60
2018-01-23T07:37:20.171Z,41.50
2018-01-23T07:39:47.764Z,40.90
2018-01-23T07:42:15.481Z,40.90
2018-01-23T07:44:43.085Z,40.70
2018-01-23T07:47:10.683Z,40.90
2018-01-23T07:49:38.999Z,41.60
2018-01-23T07:52:06.594Z,41.60
2018-01-23T07:54:34.949Z,40.90
2018-01-23T07:57:02.508Z,40.80
2018-01-23T07:59:30.073Z,41.40
2018-01-23T08:01:57.697Z,41.50
2018-01-23T08:04:25.277Z,41.20
2018-01-23T08:06:53.593Z,41.40
2018-01-23T08:09:21.207Z,41.40
2018-01-23T08:11:48.772Z,41.80
2018-01-23T08:14:16.402Z,41.40
2018-01-23T08:16:44.808Z,41.00
2018-01-23T08:19:12.582Z,41.00
2018-01-23T08:21:40.335Z,41.70
2018-01-23T08:24:07.956Z,43.20
2018-01-23T08:26:36.374Z,42.00
2018-01-23T08:29:03.941Z,42.00
2018-01-23T08:31:31.518Z,41.60
2018-01-23T08:33:59.122Z,41.30
2018-01-23T08:36:27.464Z,41.50
2018-01-23T08:38:55.898Z,41.50
2018-01-23T08:41:23.518Z,40.50
2018-01-23T08:43:51.294Z,40.80
2018-01-23T08:46:18.851Z,39.20
2018-01-23T08:48:46.478Z,38.70
2018-01-23T08:51:14.112Z,40.90
2018-01-23T08:53:41.684Z,40.10
2018-01-23T08:56:09.408Z,41.20
2018-01-23T08:58:37.753Z,41.60
2018-01-23T09:01:05.336Z,41.60
2018-01-23T09:03:33.647Z,41.10
2018-01-23T09:06:01.280Z,41.20
2018-01-23T09:08:29.598Z,41.70
2018-01-23T09:10:57.208Z,41.70
2018-01-23T09:13:24.866Z,42.30
2018-01-23T09:15:52.608Z,41.60
2018-01-23T09:18:20.210Z,41.60
2018-01-23T09:20:48.538Z,42.00
2018-01-23T09:23:16.102Z,42.00
2018-01-23T09:25:43.756Z,42.00
2018-01-23T09:28:11.288Z,41.80
2018-01-23T09:30:39.075Z,41.00
2018-01-23T09:33:06.624Z,40.80
2018-01-23T09:35:34.192Z,40.80
2018-01-23T09:38:01.788Z,40.50
2018-01-23T09:40:29.350Z,41.30
2018-01-23T09:42:56.952Z,41.10
2018-01-23T09:45:24.595Z,41.10
2018-01-23T09:47:53.056Z,40.80
2018-01-23T09:50:20.598Z,40.80
2018-01-23T09:52:48.170Z,41.00
2018-01-23T09:55:15.924Z,40.90
2018-01-23T09:57:43.495Z,40.40
2018-01-23T10:00:11.084Z,40.70
2018-01-23T10:02:39.506Z,40.50
2018-01-23T10:05:07.115Z,40.50
2018-01-23T10:07:35.444Z,40.40
2018-01-23T10:10:03.037Z,40.40
2018-01-23T10:12:30.579Z,40.20
2018-01-23T10:14:58.151Z,40.50
2018-01-23T10:17:25.746Z,40.90
2018-01-23T10:19:53.292Z,40.90
2018-01-23T10:22:21.614Z,40.20
2018-01-23T10:24:49.224Z,40.20
2018-01-23T10:27:17.559Z,40.50
2018-01-23T10:29:45.116Z,40.40
2018-01-23T10:32:13.698Z,40.00
2018-01-23T10:34:41.302Z,40.10
2018-01-23T10:37:09.096Z,39.80
2018-01-23T10:39:36.694Z,40.10
2018-01-23T10:42:04.402Z,40.00
2018-01-23T10:44:32.730Z,40.20
2018-01-23T10:47:00.272Z,40.30
2018-01-23T10:49:27.842Z,40.20
2018-01-23T10:51:56.114Z,39.30
2018-01-23T10:54:23.749Z,39.90
2018-01-23T10:56:51.363Z,38.60
2018-01-23T10:59:19.006Z,39.10
2018-01-23T11:01:46.568Z,38.60
2018-01-23T11:04:14.165Z,39.20
2018-01-23T11:06:42.538Z,41.20
2018-01-23T11:09:10.060Z,41.20
2018-01-23T11:11:37.662Z,41.40
2018-01-23T11:14:05.983Z,44.40
2018-01-23T11:16:33.640Z,44.40
2018-01-23T11:19:01.218Z,46.80
2018-01-23T11:21:28.769Z,48.80
2018-01-23T11:23:56.296Z,50.60
2018-01-23T11:26:23.884Z,50.00
2018-01-23T11:28:51.418Z,50.00
2018-01-23T11:31:18.974Z,50.00
2018-01-23T11:33:46.602Z,50.00
2018-01-23T11:36:14.316Z,50.00
2018-01-23T11:38:41.895Z,50.00
2018-01-23T11:41:10.363Z,48.50
2018-01-23T11:43:37.942Z,48.60
2018-01-23T11:46:05.582Z,48.50
2018-01-23T11:48:33.126Z,47.70
2018-01-23T11:51:00.720Z,47.90
2018-01-23T11:53:28.244Z,48.30
2018-01-23T11:55:55.790Z,47.40
2018-01-23T11:58:24.154Z,46.30
2018-01-23T12:00:51.720Z,46.30
2018-01-23T12:03:19.332Z,46.50
2018-01-23T12:05:46.950Z,46.20
2018-01-23T12:08:15.277Z,45.80
2018-01-23T12:10:42.840Z,45.80
2018-01-23T12:13:10.440Z,44.60
2018-01-23T12:15:38.915Z,44.30
2018-01-23T12:18:06.461Z,44.40
2018-01-23T12:20:34.034Z,43.70
2018-01-23T12:23:02.417Z,43.20
2018-01-23T12:25:30.831Z,43.60
2018-01-23T12:27:58.500Z,42.90
2018-01-23T12:30:26.113Z,42.90
2018-01-23T12:32:53.655Z,42.90
2018-01-23T12:35:21.372Z,42.70
2018-01-23T12:37:49.001Z,42.50
2018-01-23T12:40:17.306Z,41.80
2018-01-23T12:42:45.546Z,41.60
2018-01-23T12:45:13.869Z,41.00
2018-01-23T12:47:41.420Z,40.90
2018-01-23T12:50:09.022Z,41.80
2018-01-23T12:52:36.709Z,42.10
2018-01-23T12:55:04.296Z,41.70
2018-01-23T12:57:31.875Z,41.50
2018-01-23T12:59:59.936Z,42.30
2018-01-23T13:02:27.482Z,41.80
2018-01-23T13:04:55.014Z,42.10
2018-01-23T13:07:23.540Z,41.70
2018-01-23T13:09:51.076Z,41.70
2018-01-23T13:12:18.801Z,42.10
2018-01-23T13:14:46.443Z,41.50
2018-01-23T13:17:14.009Z,41.80
2018-01-23T13:19:41.561Z,41.30
2018-01-23T13:22:09.291Z,40.90
2018-01-23T13:24:36.854Z,40.90
2018-01-23T13:27:04.417Z,40.90
2018-01-23T13:29:32.031Z,41.60
2018-01-23T13:31:59.744Z,41.70
2018-01-23T13:34:27.433Z,38.90
2018-01-23T13:36:55.027Z,38.90
2018-01-23T13:39:22.561Z,41.10
2018-01-23T13:41:50.285Z,41.90
2018-01-23T13:44:18.789Z,42.00
2018-01-23T13:46:46.329Z,41.80
2018-01-23T13:49:14.083Z,41.60
2018-01-23T13:51:41.667Z,41.30
2018-01-23T13:54:09.219Z,42.00
2018-01-23T13:56:36.843Z,41.80
2018-01-23T13:59:05.205Z,41.10
2018-01-23T14:01:32.772Z,41.10
2018-01-23T14:04:00.345Z,42.00
2018-01-23T14:06:28.698Z,41.10
2018-01-23T14:08:56.243Z,41.10
2018-01-23T14:11:23.839Z,41.30
2018-01-23T14:13:52.177Z,40.30
2018-01-23T14:16:19.909Z,40.50
2018-01-23T14:18:47.493Z,41.80
2018-01-23T14:21:15.058Z,41.40
2018-01-23T14:23:42.695Z,41.70
2018-01-23T14:26:10.259Z,42.60
2018-01-23T14:28:37.867Z,41.80
2018-01-23T14:31:06.193Z,42.70
2018-01-23T14:33:33.713Z,42.00
2018-01-23T14:36:02.081Z,41.20
2018-01-23T14:38:29.651Z,41.20
2018-01-23T14:40:58.109Z,42.30
2018-01-23T14:43:25.703Z,42.30
2018-01-23T14:45:53.249Z,41.60
2018-01-23T14:48:21.625Z,41.20
2018-01-23T14:50:49.949Z,40.90
2018-01-23T14:53:17.515Z,40.90
2018-01-23T14:55:45.258Z,41.20
2018-01-23T14:58:12.922Z,42.30
2018-01-23T15:00:40.487Z,41.60
2018-01-23T15:03:08.103Z,40.60
2018-01-23T15:05:35.659Z,41.30
2018-01-23T15:08:03.339Z,41.50
2018-01-23T15:10:30.905Z,40.80
2018-01-23T15:12:59.275Z,41.30
2018-01-23T15:15:27.575Z,40.40
2018-01-23T15:17:55.138Z,40.40
2018-01-23T15:20:22.769Z,40.80
2018-01-23T15:22:51.107Z,40.80
2018-01-23T15:25:18.753Z,40.80
2018-01-23T15:27:46.357Z,40.80
2018-01-23T15:30:14.686Z,42.00
2018-01-23T15:32:42.227Z,41.30
2018-01-23T15:35:09.840Z,40.60
2018-01-23T15:37:37.441Z,40.80
2018-01-23T15:40:05.058Z,40.10
2018-01-23T15:42:32.614Z,40.70
2018-01-23T15:45:00.168Z,40.60
2018-01-23T15:47:27.768Z,40.60
2018-01-23T15:49:56.066Z,40.10
2018-01-23T15:52:23.656Z,40.10
2018-01-23T15:54:51.240Z,40.10
2018-01-23T15:57:18.801Z,41.10
2018-01-23T15:59:46.375Z,41.00
2018-01-23T16:02:14.704Z,41.10
2018-01-23T16:04:42.256Z,41.00
2018-01-23T16:07:09.848Z,40.60
2018-01-23T16:09:37.414Z,39.90
2018-01-23T16:12:05.134Z,40.60
2018-01-23T16:14:32.700Z,40.80
2018-01-23T16:17:00.276Z,41.10
2018-01-23T16:19:28.024Z,40.80
2018-01-23T16:21:55.734Z,41.00
2018-01-23T16:24:23.406Z,41.50
2018-01-23T16:26:51.830Z,40.30
2018-01-23T16:29:19.585Z,40.30
2018-01-23T16:31:47.198Z,40.50
2018-01-23T16:34:14.776Z,40.80
2018-01-23T16:36:43.091Z,40.60
2018-01-23T16:39:10.758Z,40.60
2018-01-23T16:41:38.370Z,40.20
2018-01-23T16:44:06.714Z,40.30
2018-01-23T16:46:34.282Z,40.40
2018-01-23T16:49:01.910Z,40.20
2018-01-23T16:51:29.474Z,39.20
2018-01-23T16:53:57.046Z,39.70
2018-01-23T16:56:24.683Z,38.70
2018-01-23T16:58:52.240Z,41.00
2018-01-23T17:01:19.964Z,43.40
2018-01-23T17:03:48.330Z,41.30
2018-01-23T17:06:15.916Z,41.20
2018-01-23T17:08:44.326Z,44.60
2018-01-23T17:11:11.932Z,44.50
2018-01-23T17:13:39.610Z,44.50
2018-01-23T17:16:07.991Z,42.70
2018-01-23T17:18:36.336Z,43.40
2018-01-23T17:21:03.900Z,43.40
2018-01-23T17:23:31.514Z,43.00
2018-01-23T17:25:59.060Z,42.80
2018-01-23T17:28:27.395Z,44.60
2018-01-23T17:30:54.974Z,44.60
2018-01-23T17:33:22.541Z,40.10
2018-01-23T17:35:50.890Z,41.40
2018-01-23T17:38:18.464Z,41.40
2018-01-23T17:40:46.033Z,41.60
2018-01-23T17:43:14.465Z,40.80
2018-01-23T17:45:42.037Z,40.30
2018-01-23T17:48:09.801Z,39.40
2018-01-23T17:50:37.551Z,38.80
2018-01-23T17:53:05.111Z,38.80
2018-01-23T17:55:32.720Z,39.80
2018-01-23T17:58:00.321Z,38.80
2018-01-23T18:00:28.361Z,38.90
2018-01-23T18:02:56.691Z,39.70
2018-01-23T18:05:24.400Z,39.80
2018-01-23T18:07:52.720Z,40.00
2018-01-23T18:10:20.277Z,40.10
2018-01-23T18:12:48.954Z,38.90
2018-01-23T18:15:16.486Z,38.80
2018-01-23T18:17:44.801Z,38.80
2018-01-23T18:20:12.430Z,38.80
2018-01-23T18:22:40.750Z,38.80
2018-01-23T18:25:08.299Z,38.80
2018-01-23T18:27:35.937Z,38.80
2018-01-23T18:30:03.488Z,38.80
2018-01-23T18:32:31.787Z,38.80
2018-01-23T18:34:59.498Z,38.80
2018-01-23T18:37:27.053Z,38.80
2018-01-23T18:39:54.635Z,38.80
2018-01-23T18:42:23.024Z,38.80
2018-01-23T18:44:51.542Z,38.80
2018-01-23T18:47:19.905Z,38.80
2018-01-23T18:49:47.466Z,38.80
2018-01-23T18:52:15.076Z,38.80
2018-01-23T18:54:42.631Z,38.80
2018-01-23T18:57:10.221Z,38.80
2018-01-23T18:59:37.879Z,38.80
2018-01-23T19:02:06.240Z,38.80
2018-01-23T19:04:33.854Z,38.80
2018-01-23T19:07:01.503Z,38.80
2018-01-23T19:09:29.051Z,38.80
2018-01-23T19:11:57.392Z,39.80
2018-01-23T19:14:25.088Z,39.70
2018-01-23T19:16:52.661Z,38.80
2018-01-23T19:19:20.296Z,38.90
2018-01-23T19:21:48.659Z,39.80
2018-01-23T19:24:16.262Z,39.90
2018-01-23T19:26:43.912Z,40.00
2018-01-23T19:29:11.567Z,39.90
2018-01-23T19:31:39.930Z,39.90
2018-01-23T19:34:08.435Z,40.10
2018-01-23T19:36:36.047Z,40.50
2018-01-23T19:39:03.650Z,40.30
2018-01-23T19:41:32.081Z,40.00
2018-01-23T19:43:59.703Z,40.00
2018-01-23T19:46:27.389Z,35.10
2018-01-23T19:48:55.259Z,35.90
2018-01-23T19:51:22.949Z,32.90
2018-01-23T19:53:50.536Z,32.70
2018-01-23T19:56:18.974Z,32.40
2018-01-23T19:58:46.577Z,32.30
2018-01-23T20:01:14.953Z,32.20
2018-01-23T20:03:43.393Z,30.40
2018-01-23T20:06:11.847Z,30.40
2018-01-23T20:08:39.452Z,29.90
2018-01-23T20:11:07.890Z,31.80
2018-01-23T20:13:35.491Z,31.70
2018-01-23T20:16:03.095Z,31.70
2018-01-23T20:18:30.747Z,31.50
2018-01-23T20:20:59.111Z,31.30
2018-01-23T20:23:27.483Z,31.50
2018-01-23T20:25:55.903Z,30.10
2018-01-23T20:28:23.775Z,30.10
2018-01-23T20:30:51.593Z,31.50
2018-01-23T20:33:19.191Z,30.50
2018-01-23T20:35:46.829Z,31.50
2018-01-23T20:38:15.401Z,31.30
2018-01-23T20:40:43.966Z,29.80
2018-01-23T20:43:11.699Z,29.80
2018-01-23T20:45:39.315Z,31.10
2018-01-23T20:48:07.829Z,30.40
2018-01-23T20:50:35.557Z,30.30
2018-01-23T20:53:04.059Z,30.40
2018-01-23T20:55:31.734Z,30.30
2018-01-23T20:57:59.311Z,31.00
2018-01-23T21:00:26.963Z,29.50
2018-01-23T21:02:54.607Z,30.00
2018-01-23T21:05:22.512Z,29.40
2018-01-23T21:07:50.089Z,32.20
2018-01-23T21:10:17.667Z,35.10
2018-01-23T21:12:45.306Z,36.90
2018-01-23T21:15:13.741Z,36.90
2018-01-23T21:17:41.326Z,37.00
2018-01-23T21:20:08.978Z,37.50
2018-01-23T21:22:36.548Z,38.30
2018-01-23T21:25:04.108Z,39.10
2018-01-23T21:27:31.715Z,39.50
2018-01-23T21:30:00.059Z,40.00
2018-01-23T21:32:27.642Z,40.00
2018-01-23T21:34:55.248Z,40.10
2018-01-23T21:37:22.800Z,39.90
2018-01-23T21:39:50.403Z,40.10
2018-01-23T21:42:17.987Z,40.20
2018-01-23T21:44:46.507Z,40.00
2018-01-23T21:47:14.176Z,40.00
2018-01-23T21:49:41.834Z,40.50
2018-01-23T21:52:09.406Z,40.30
2018-01-23T21:54:36.993Z,40.10
2018-01-23T21:57:04.546Z,40.20
2018-01-23T21:59:32.920Z,39.90
2018-01-23T22:02:00.472Z,40.00
2018-01-23T22:04:28.078Z,39.70
2018-01-23T22:06:56.548Z,39.50
2018-01-23T22:09:24.918Z,40.10
2018-01-23T22:11:52.470Z,40.10
2018-01-23T22:14:20.193Z,39.90
2018-01-23T22:16:47.750Z,39.90
2018-01-23T22:19:15.313Z,40.30
2018-01-23T22:21:43.030Z,39.90
2018-01-23T22:24:10.699Z,40.00
2018-01-23T22:26:39.107Z,39.90
2018-01-23T22:29:06.730Z,39.90
2018-01-23T22:31:34.278Z,40.30
2018-01-23T22:34:01.916Z,40.00
2018-01-23T22:36:29.650Z,39.50
2018-01-23T22:38:57.209Z,39.50
2018-01-23T22:41:24.828Z,39.90
2018-01-23T22:43:53.883Z,39.50
2018-01-23T22:46:21.446Z,39.50
2018-01-23T22:48:49.097Z,39.30
2018-01-23T22:51:16.780Z,40.00
2018-01-23T22:53:44.376Z,39.60
2018-01-23T22:56:12.714Z,39.00
2018-01-23T22:58:40.279Z,39.00
2018-01-23T23:01:07.908Z,39.50
2018-01-23T23:03:35.570Z,38.90
2018-01-23T23:06:03.124Z,39.20
2018-01-23T23:08:30.718Z,39.20
2018-01-23T23:10:58.296Z,38.80
2018-01-23T23:13:25.842Z,39.30
2018-01-23T23:15:54.325Z,38.60
2018-01-23T23:18:21.893Z,38.80
2018-01-23T23:20:49.472Z,38.70
2018-01-23T23:23:18.006Z,38.80
2018-01-23T23:25:45.595Z,38.90
2018-01-23T23:28:13.264Z,38.30
2018-01-23T23:30:40.870Z,38.00
2018-01-23T23:33:08.414Z,38.80
2018-01-23T23:35:36.026Z,38.70
2018-01-23T23:38:03.624Z,38.30
2018-01-23T23:40:31.958Z,38.70
2018-01-23T23:42:59.516Z,38.60
2018-01-23T23:45:27.314Z,37.50
2018-01-23T23:47:55.686Z,37.60
2018-01-23T23:50:23.219Z,37.60
2018-01-23T23:52:50.774Z,37.50
2018-01-23T23:55:18.508Z,37.70
2018-01-23T23:57:46.056Z,37.70
